Time;durP1;ratioP1;P1;durP2;ratioP2;P2;SDS_P1;SDS_P2;PMS_P1;PMS_P2;Temp;Humidity;BMP_temperature;BMP_pressure;BME280_temperature;BME280_humidity;BME280_pressure;Samples;Min_cycle;Max_cycle;Signal;HPM_P1;HPM_P2
2023/08/19 00:00:23;;;;;;;3.00;0.70;;;22.00;38.20;;;;;;5032871;28;20530;-68
2023/08/19 00:02:50;;;;;;;1.63;0.50;;;22.10;39.50;;;;;;5033727;28;20030;-68
2023/08/19 00:05:18;;;;;;;4.97;0.90;;;21.90;38.20;;;;;;5052730;28;20029;-68
2023/08/19 00:07:47;;;;;;;1.85;0.63;;;22.20;38.30;;;;;;5051923;28;20028;-68
2023/08/19 00:10:14;;;;;;;2.35;0.68;;;23.00;35.10;;;;;;5052592;28;20032;-69
2023/08/19 00:12:41;;;;;;;4.20;0.77;;;22.00;45.10;;;;;;5037360;28;20445;-69
2023/08/19 00:15:09;;;;;;;2.05;0.43;;;21.70;45.60;;;;;;5032399;28;20036;-69
2023/08/19 00:17:37;;;;;;;3.63;0.85;;;21.80;46.00;;;;;;5035380;28;20358;-68
2023/08/19 00:20:06;;;;;;;5.30;0.60;;;22.20;42.30;;;;;;5052405;28;20035;-67
2023/08/19 00:22:33;;;;;;;1.58;0.32;;;22.30;44.50;;;;;;5050520;28;20053;-67
2023/08/19 00:25:01;;;;;;;2.30;0.57;;;22.30;42.70;;;;;;5047365;28;20033;-68
2023/08/19 00:27:28;;;;;;;3.00;0.80;;;22.50;44.00;;;;;;5032276;28;20471;-68
2023/08/19 00:29:56;;;;;;;3.78;0.60;;;22.90;43.60;;;;;;5032356;28;20037;-67
2023/08/19 00:32:23;;;;;;;3.97;0.77;;;22.60;42.70;;;;;;5025530;28;20018;-68
2023/08/19 00:34:51;;;;;;;5.28;0.60;;;22.40;43.20;;;;;;5036295;28;20033;-67
2023/08/19 00:37:19;;;;;;;4.07;0.70;;;22.40;43.20;;;;;;5052070;28;20029;-68
2023/08/19 00:39:46;;;;;;;3.90;0.65;;;22.50;43.10;;;;;;5052140;28;20032;-68
2023/08/19 00:42:14;;;;;;;5.07;0.50;;;22.90;42.60;;;;;;5048477;28;20078;-71
2023/08/19 00:44:42;;;;;;;3.78;0.50;;;22.90;42.60;;;;;;5052189;28;20032;-68
2023/08/19 00:47:09;;;;;;;3.20;0.50;;;23.00;42.10;;;;;;5052092;28;20032;-69
2023/08/19 00:49:37;;;;;;;2.80;0.75;;;22.70;42.50;;;;;;5033515;28;20021;-68
2023/08/19 00:52:05;;;;;;;2.92;0.57;;;22.80;41.80;;;;;;5037075;28;20033;-68
2023/08/19 00:54:32;;;;;;;3.05;0.60;;;22.70;43.10;;;;;;5051564;28;20073;-67
2023/08/19 00:57:01;;;;;;;2.85;0.60;;;22.80;43.80;;;;;;5051871;28;20056;-67
2023/08/19 00:59:28;;;;;;;2.35;0.70;;;23.20;43.90;;;;;;5040470;28;20425;-68
2023/08/19 01:01:56;;;;;;;2.30;0.60;;;23.20;42.10;;;;;;5031580;28;20021;-68
2023/08/19 01:04:24;;;;;;;2.38;0.60;;;22.90;43.50;;;;;;5032776;28;20577;-67
2023/08/19 01:06:55;;;;;;;1.10;0.40;;;23.00;42.50;;;;;;5031112;28;20025;-68
2023/08/19 01:09:49;;;;;;;2.38;0.65;;;23.20;43.00;;;;;;5031903;28;20033;-68
2023/08/19 01:12:44;;;;;;;2.67;0.60;;;23.80;42.40;;;;;;5029464;28;20521;-68
2023/08/19 01:15:15;;;;;;;2.60;0.50;;;23.40;43.70;;;;;;5031916;28;20533;-69
2023/08/19 01:17:45;;;;;;;0.93;0.30;;;23.50;43.30;;;;;;5031323;28;20140;-68
2023/08/19 01:20:13;;;;;;;3.53;0.50;;;23.60;43.20;;;;;;5031731;28;20036;-68
2023/08/19 01:23:09;;;;;;;0.90;0.35;;;23.60;43.20;;;;;;5044635;28;20104;-68
2023/08/19 01:25:37;;;;;;;1.63;0.57;;;23.80;42.30;;;;;;5043411;28;20030;-70
2023/08/19 01:28:05;;;;;;;2.65;0.43;;;23.20;43.40;;;;;;5030802;28;20053;-70
2023/08/19 01:30:33;;;;;;;2.13;0.38;;;23.00;44.60;;;;;;5031718;28;20095;-68
2023/08/19 01:33:03;;;;;;;1.50;0.57;;;22.60;44.70;;;;;;5031382;28;20203;-70
2023/08/19 01:35:35;;;;;;;2.67;0.57;;;22.60;44.80;;;;;;5031592;28;20110;-70
2023/08/19 01:38:20;;;;;;;2.03;0.60;;;23.20;43.00;;;;;;5030145;28;20551;-70
2023/08/19 01:40:48;;;;;;;1.08;0.35;;;23.50;44.10;;;;;;5051586;28;20075;-70
2023/08/19 01:43:16;;;;;;;3.80;0.60;;;23.30;42.50;;;;;;5050396;28;20508;-70
2023/08/19 01:45:43;;;;;;;3.67;0.68;;;23.20;43.30;;;;;;5050130;28;20581;-70
2023/08/19 01:48:11;;;;;;;3.78;0.70;;;23.70;43.10;;;;;;5051552;28;20060;-70
2023/08/19 01:50:38;;;;;;;2.20;0.60;;;23.60;43.70;;;;;;5048740;28;20025;-69
2023/08/19 01:53:06;;;;;;;1.85;0.73;;;23.70;43.10;;;;;;5051190;28;20025;-70
2023/08/19 01:55:33;;;;;;;3.10;0.73;;;23.50;44.00;;;;;;5051414;28;20044;-70
2023/08/19 01:58:00;;;;;;;2.17;0.68;;;23.40;43.60;;;;;;5036217;28;20449;-69
2023/08/19 02:00:28;;;;;;;1.60;0.50;;;23.30;44.50;;;;;;5031787;28;20045;-70
2023/08/19 02:02:55;;;;;;;3.92;0.50;;;23.50;43.60;;;;;;5031479;28;20021;-70
2023/08/19 02:05:23;;;;;;;2.33;0.55;;;23.50;43.70;;;;;;5031423;28;20113;-70
2023/08/19 02:07:50;;;;;;;1.85;0.60;;;23.70;45.00;;;;;;5044891;28;20109;-70
2023/08/19 02:10:18;;;;;;;1.80;0.60;;;23.80;45.70;;;;;;5050119;28;20036;-70
2023/08/19 02:12:45;;;;;;;4.30;0.60;;;23.90;44.00;;;;;;5055061;28;20101;-70
2023/08/19 02:15:14;;;;;;;3.50;0.70;;;24.10;43.00;;;;;;5054859;28;20083;-71
2023/08/19 02:17:41;;;;;;;4.50;0.73;;;24.10;45.20;;;;;;5042401;28;20017;-68
2023/08/19 02:20:09;;;;;;;2.75;0.55;;;24.20;44.90;;;;;;5033971;28;20501;-70
2023/08/19 02:22:40;;;;;;;1.38;0.38;;;24.20;43.90;;;;;;5034944;28;20025;-70
2023/08/19 02:25:08;;;;;;;1.80;0.50;;;23.40;44.70;;;;;;5037271;28;20407;-70
2023/08/19 02:27:37;;;;;;;3.20;0.52;;;22.50;47.30;;;;;;5034478;28;20045;-70
2023/08/19 02:30:05;;;;;;;2.10;0.38;;;22.20;47.30;;;;;;5040740;28;20469;-69
2023/08/19 02:32:33;;;;;;;1.35;0.50;;;21.90;47.80;;;;;;5034169;28;20397;-69
2023/08/19 02:35:01;;;;;;;1.35;0.50;;;21.50;49.10;;;;;;5034137;28;20041;-69
2023/08/19 02:37:29;;;;;;;1.63;0.40;;;21.30;48.20;;;;;;5034472;28;20025;-70
2023/08/19 02:39:56;;;;;;;3.03;0.63;;;21.10;49.80;;;;;;5038652;28;20056;-69
2023/08/19 02:42:24;;;;;;;3.35;0.57;;;20.90;49.70;;;;;;5040281;28;20368;-70
2023/08/19 02:44:51;;;;;;;4.45;0.65;;;20.90;49.60;;;;;;5034399;28;20029;-69
2023/08/19 02:47:19;;;;;;;0.95;0.40;;;20.70;50.10;;;;;;5041416;28;20032;-69
2023/08/19 02:49:46;;;;;;;1.60;0.63;;;20.60;50.60;;;;;;5052295;28;20108;-70
2023/08/19 02:52:13;;;;;;;2.05;0.30;;;20.50;51.50;;;;;;5034568;28;20467;-69
2023/08/19 02:54:45;;;;;;;1.75;0.50;;;20.60;50.40;;;;;;5034088;28;20033;-69
2023/08/19 02:57:12;;;;;;;3.95;0.65;;;20.50;50.20;;;;;;5034104;28;20033;-69
2023/08/19 02:59:40;;;;;;;1.13;0.32;;;20.40;51.60;;;;;;5032625;28;20037;-69
2023/08/19 03:02:07;;;;;;;2.92;0.63;;;20.30;52.20;;;;;;5033351;28;20475;-70
2023/08/19 03:04:35;;;;;;;0.98;0.30;;;20.60;50.60;;;;;;5033720;28;20479;-69
2023/08/19 03:07:02;;;;;;;2.40;0.30;;;20.50;50.00;;;;;;5034030;28;20029;-69
2023/08/19 03:09:30;;;;;;;1.45;0.35;;;20.70;51.20;;;;;;5033809;28;20072;-70
2023/08/19 03:11:57;;;;;;;2.83;0.60;;;20.60;50.90;;;;;;5052880;28;20050;-69
2023/08/19 03:14:24;;;;;;;1.13;0.45;;;21.00;51.50;;;;;;5044044;28;20512;-69
2023/08/19 03:16:54;;;;;;;1.42;0.50;;;20.90;51.30;;;;;;5033731;28;20136;-67
2023/08/19 03:19:21;;;;;;;2.42;0.50;;;20.90;51.50;;;;;;5033784;28;20029;-69
2023/08/19 03:21:49;;;;;;;1.38;0.32;;;20.90;52.30;;;;;;5032797;28;20034;-69
2023/08/19 03:24:16;;;;;;;1.25;0.20;;;21.00;50.70;;;;;;5033213;28;20034;-70
2023/08/19 03:26:44;;;;;;;3.10;0.55;;;21.40;51.80;;;;;;5033259;28;20049;-67
2023/08/19 03:29:11;;;;;;;2.40;0.30;;;21.80;49.90;;;;;;5033704;28;20121;-69
2023/08/19 03:31:39;;;;;;;4.47;0.55;;;22.50;48.30;;;;;;5033288;28;20029;-69
2023/08/19 03:34:06;;;;;;;1.35;0.32;;;22.60;49.10;;;;;;5034179;28;20112;-68
2023/08/19 03:36:33;;;;;;;2.53;0.40;;;22.60;49.10;;;;;;5033852;28;20089;-70
2023/08/19 03:39:04;;;;;;;4.38;0.52;;;22.50;49.30;;;;;;5033713;28;20054;-70
2023/08/19 03:41:31;;;;;;;1.17;0.40;;;22.50;48.40;;;;;;5034083;28;20088;-70
2023/08/19 03:43:59;;;;;;;1.77;0.57;;;22.30;49.60;;;;;;5034055;28;20382;-70
2023/08/19 03:46:26;;;;;;;1.40;0.47;;;22.20;48.70;;;;;;5034059;28;20117;-69
2023/08/19 03:48:53;;;;;;;2.08;0.32;;;21.70;51.40;;;;;;5039318;28;20036;-70
2023/08/19 03:51:21;;;;;;;4.85;0.40;;;21.20;50.90;;;;;;5053490;28;20032;-70
2023/08/19 03:53:48;;;;;;;0.57;0.30;;;21.20;50.60;;;;;;5053072;28;20087;-69
2023/08/19 03:56:16;;;;;;;1.35;0.57;;;21.70;51.00;;;;;;5053227;28;20037;-70
2023/08/19 03:58:45;;;;;;;1.17;0.20;;;22.30;49.50;;;;;;5052454;28;20473;-70
2023/08/19 04:01:13;;;;;;;0.82;0.17;;;22.60;49.40;;;;;;5053139;28;20025;-70
2023/08/19 04:03:40;;;;;;;2.63;0.50;;;22.70;49.30;;;;;;5053128;28;20025;-70
2023/08/19 04:06:07;;;;;;;1.27;0.22;;;22.70;48.90;;;;;;5043344;28;20438;-70
2023/08/19 04:08:35;;;;;;;3.30;0.55;;;22.70;50.00;;;;;;5033540;28;20036;-68
2023/08/19 04:11:07;;;;;;;0.95;0.40;;;22.70;49.70;;;;;;5033085;28;20026;-69
2023/08/19 04:13:34;;;;;;;2.15;0.47;;;22.50;50.80;;;;;;5032795;28;20100;-69
2023/08/19 04:16:08;;;;;;;1.13;0.50;;;22.40;51.60;;;;;;5032950;28;20044;-68
2023/08/19 04:18:36;;;;;;;1.60;0.38;;;22.40;51.20;;;;;;5032556;28;20036;-68
2023/08/19 04:21:05;;;;;;;1.15;0.30;;;22.30;50.80;;;;;;5032354;28;20032;-69
2023/08/19 04:23:33;;;;;;;1.23;0.20;;;22.20;51.30;;;;;;5043225;28;20053;-68
2023/08/19 04:26:02;;;;;;;2.08;0.30;;;22.30;51.40;;;;;;5052081;28;20481;-69
2023/08/19 04:28:29;;;;;;;1.15;0.20;;;22.30;51.20;;;;;;5052484;28;20033;-69
2023/08/19 04:31:08;;;;;;;1.75;0.60;;;22.30;51.70;;;;;;5052210;28;20017;-68
2023/08/19 04:33:36;;;;;;;1.65;0.38;;;22.00;52.00;;;;;;5040394;28;20421;-68
2023/08/19 04:36:03;;;;;;;2.72;0.30;;;21.90;52.80;;;;;;5031761;28;20037;-69
2023/08/19 04:38:32;;;;;;;4.65;0.90;;;22.00;53.10;;;;;;5032342;28;20356;-69
2023/08/19 04:41:02;;;;;;;1.85;0.50;;;21.90;53.00;;;;;;5046599;28;20066;-68
2023/08/19 04:43:29;;;;;;;1.38;0.25;;;21.80;52.10;;;;;;5052020;28;20104;-69
2023/08/19 04:45:57;;;;;;;1.95;0.30;;;21.70;51.60;;;;;;5037466;28;20026;-69
2023/08/19 04:48:25;;;;;;;1.65;0.38;;;21.60;51.30;;;;;;5032164;28;20486;-69
2023/08/19 04:50:52;;;;;;;0.88;0.40;;;21.40;52.00;;;;;;5045516;28;20033;-69
2023/08/19 04:53:20;;;;;;;1.90;0.40;;;21.30;52.90;;;;;;5052063;28;20032;-68
2023/08/19 04:55:47;;;;;;;0.47;0.20;;;21.10;53.50;;;;;;5052415;28;20068;-68
2023/08/19 04:58:15;;;;;;;1.55;0.50;;;20.90;53.20;;;;;;5035160;28;20029;-69
2023/08/19 05:00:43;;;;;;;1.70;0.40;;;20.80;53.90;;;;;;5032228;28;20033;-68
2023/08/19 05:03:10;;;;;;;2.85;0.40;;;20.90;53.20;;;;;;5032119;28;20506;-68
2023/08/19 05:05:38;;;;;;;1.27;0.28;;;20.90;53.50;;;;;;5032162;28;20037;-69
2023/08/19 05:08:05;;;;;;;2.13;0.38;;;20.90;54.70;;;;;;5032345;28;20086;-70
2023/08/19 05:10:33;;;;;;;0.98;0.30;;;20.80;54.40;;;;;;5031760;28;20030;-71
2023/08/19 05:13:00;;;;;;;4.45;0.40;;;20.50;54.20;;;;;;5031740;28;20108;-69
2023/08/19 05:15:27;;;;;;;1.13;0.30;;;20.30;55.40;;;;;;5048251;28;20120;-69
2023/08/19 05:17:55;;;;;;;1.15;0.20;;;20.20;55.50;;;;;;5032085;28;20025;-69
2023/08/19 05:20:22;;;;;;;0.30;0.10;;;20.00;55.20;;;;;;5031818;28;20044;-69
2023/08/19 05:22:50;;;;;;;1.13;0.30;;;20.00;55.90;;;;;;5031877;28;20036;-68
2023/08/19 05:25:17;;;;;;;2.35;0.40;;;20.00;54.70;;;;;;5032306;28;20502;-68
2023/08/19 05:27:44;;;;;;;2.45;0.35;;;20.10;54.90;;;;;;5031419;28;20056;-68
2023/08/19 05:30:12;;;;;;;1.80;0.60;;;20.20;54.60;;;;;;5032017;28;20033;-68
2023/08/19 05:32:40;;;;;;;1.45;0.35;;;20.30;55.10;;;;;;5031867;28;20067;-69
2023/08/19 05:35:08;;;;;;;0.85;0.22;;;20.40;54.70;;;;;;5031734;28;20505;-70
2023/08/19 05:37:35;;;;;;;0.90;0.20;;;20.40;55.00;;;;;;5031521;28;20379;-69
2023/08/19 05:40:04;;;;;;;0.73;0.20;;;20.30;54.40;;;;;;5031508;28;20025;-69
2023/08/19 05:42:31;;;;;;;1.98;0.30;;;20.40;55.30;;;;;;5032191;28;20022;-69
2023/08/19 05:44:58;;;;;;;1.65;0.30;;;20.40;55.10;;;;;;5031743;28;20030;-68
2023/08/19 05:47:26;;;;;;;1.75;0.20;;;20.30;54.80;;;;;;5045672;28;20107;-68
2023/08/19 05:49:53;;;;;;;2.05;0.30;;;20.10;54.50;;;;;;5035636;28;20362;-68
2023/08/19 05:52:21;;;;;;;1.92;0.50;;;19.80;55.80;;;;;;5035214;28;20489;-69
2023/08/19 05:54:49;;;;;;;1.60;0.55;;;19.90;55.80;;;;;;5034762;28;20041;-68
2023/08/19 05:57:17;;;;;;;0.43;0.20;;;20.10;56.80;;;;;;5035776;28;20471;-69
2023/08/19 05:59:44;;;;;;;1.75;0.15;;;20.30;55.60;;;;;;5035504;28;20033;-69
2023/08/19 06:02:11;;;;;;;1.60;0.30;;;20.10;55.90;;;;;;5035155;28;20029;-69
2023/08/19 06:04:39;;;;;;;0.82;0.22;;;20.00;55.60;;;;;;5038301;28;20021;-68
2023/08/19 06:07:06;;;;;;;0.88;0.20;;;19.70;56.40;;;;;;5054755;28;20029;-69
2023/08/19 06:09:34;;;;;;;0.55;0.20;;;19.50;56.80;;;;;;5055047;28;20021;-68
2023/08/19 06:12:02;;;;;;;0.93;0.30;;;19.50;57.60;;;;;;5055288;28;20077;-69
2023/08/19 06:14:29;;;;;;;1.85;0.30;;;19.60;57.20;;;;;;5051439;28;20061;-69
2023/08/19 06:16:57;;;;;;;1.40;0.43;;;19.60;57.20;;;;;;5035117;28;20441;-68
2023/08/19 06:19:24;;;;;;;1.67;0.30;;;19.50;57.60;;;;;;5034622;28;20147;-68
2023/08/19 06:21:53;;;;;;;0.85;0.20;;;19.20;56.80;;;;;;5039711;28;20028;-68
2023/08/19 06:24:21;;;;;;;3.45;0.57;;;19.10;57.60;;;;;;5054911;28;20024;-68
2023/08/19 06:26:48;;;;;;;0.70;0.20;;;18.90;57.00;;;;;;5054565;28;20061;-69
2023/08/19 06:29:15;;;;;;;1.00;0.32;;;18.90;57.80;;;;;;5054576;28;20053;-69
2023/08/19 06:31:43;;;;;;;4.03;0.57;;;18.80;58.60;;;;;;5050638;28;20025;-69
2023/08/19 06:34:11;;;;;;;3.17;0.82;;;18.80;58.60;;;;;;5034552;28;20029;-69
2023/08/19 06:36:41;;;;;;;3.65;2.17;;;18.70;58.60;;;;;;5034479;28;20046;-68
2023/08/19 06:39:16;;;;;;;5.22;2.42;;;18.70;59.00;;;;;;5042237;28;20031;-69
2023/08/19 06:41:52;;;;;;;8.20;4.80;;;18.60;59.20;;;;;;5054354;28;20017;-70
2023/08/19 06:44:21;;;;;;;18.90;9.48;;;18.50;59.40;;;;;;5054410;28;20032;-70
2023/08/19 06:46:50;;;;;;;76.10;35.35;;;18.50;60.10;;;;;;5048588;28;20031;-71
2023/08/19 06:49:17;;;;;;;3.47;1.60;;;18.50;60.80;;;;;;5046153;28;20104;-71
2023/08/19 06:51:45;;;;;;;30.52;16.90;;;18.30;59.80;;;;;;5034754;28;20462;-69
2023/08/19 06:54:12;;;;;;;17.30;10.43;;;18.30;60.60;;;;;;5034411;28;20029;-69
2023/08/19 06:56:48;;;;;;;13.10;8.40;;;18.20;61.10;;;;;;5045800;28;20116;-69
2023/08/19 06:59:32;;;;;;;1.45;0.43;;;18.10;61.50;;;;;;5053233;28;20040;-69
2023/08/19 07:02:02;;;;;;;2.53;1.08;;;18.30;60.30;;;;;;5054468;28;20017;-69
2023/08/19 07:04:31;;;;;;;1.38;0.70;;;18.20;61.10;;;;;;5054195;28;20029;-69
2023/08/19 07:07:03;;;;;;;0.85;0.60;;;18.00;61.30;;;;;;5051433;28;20022;-69
2023/08/19 07:09:32;;;;;;;1.92;0.57;;;17.80;61.40;;;;;;5052206;28;20064;-69
2023/08/19 07:12:01;;;;;;;1.50;0.50;;;17.60;62.60;;;;;;5054352;28;20426;-69
2023/08/19 07:14:29;;;;;;;3.05;0.63;;;17.50;62.30;;;;;;5034857;28;20017;-68
2023/08/19 07:17:00;;;;;;;1.25;0.40;;;17.30;62.80;;;;;;5033619;28;20479;-68
2023/08/19 07:19:34;;;;;;;1.13;0.40;;;17.10;63.10;;;;;;5033740;28;20026;-68
2023/08/19 07:22:02;;;;;;;2.60;0.57;;;17.00;63.10;;;;;;5047554;28;20028;-70
2023/08/19 07:24:31;;;;;;;1.42;0.40;;;16.90;63.40;;;;;;5053326;28;20032;-70
2023/08/19 07:27:03;;;;;;;2.30;1.00;;;16.80;64.40;;;;;;5053625;28;20048;-70
2023/08/19 07:29:31;;;;;;;2.75;0.45;;;16.70;64.00;;;;;;5050776;28;20025;-69
2023/08/19 07:32:00;;;;;;;1.25;0.40;;;16.60;65.10;;;;;;5032800;28;20041;-70
2023/08/19 07:34:28;;;;;;;0.88;0.30;;;16.40;65.20;;;;;;5033514;28;20382;-70
2023/08/19 07:36:56;;;;;;;2.20;0.50;;;16.30;66.00;;;;;;5033547;28;20033;-69
2023/08/19 07:39:25;;;;;;;2.30;0.70;;;16.30;66.60;;;;;;5034224;28;20022;-69
2023/08/19 07:41:53;;;;;;;1.25;0.73;;;16.20;66.40;;;;;;5033757;28;20420;-69
2023/08/19 07:44:20;;;;;;;1.08;0.65;;;16.10;66.40;;;;;;5033531;28;20033;-70
2023/08/19 07:46:47;;;;;;;2.35;0.80;;;16.00;67.70;;;;;;5035773;28;20101;-70
2023/08/19 07:49:15;;;;;;;3.13;1.45;;;15.90;67.90;;;;;;5052978;28;20056;-70
2023/08/19 07:51:42;;;;;;;1.33;0.63;;;15.80;67.60;;;;;;5053512;28;20025;-69
2023/08/19 07:54:10;;;;;;;4.05;2.50;;;15.80;69.00;;;;;;5053326;28;20035;-69
2023/08/19 07:56:37;;;;;;;3.38;3.00;;;15.70;69.10;;;;;;5052364;28;20433;-68
2023/08/19 07:59:04;;;;;;;2.58;1.35;;;15.50;70.60;;;;;;5052982;28;20021;-68
2023/08/19 08:01:32;;;;;;;4.38;3.75;;;15.40;71.40;;;;;;5052936;28;20028;-68
2023/08/19 08:03:59;;;;;;;4.00;2.83;;;15.30;71.00;;;;;;5046173;28;20029;-69
2023/08/19 08:06:27;;;;;;;3.80;2.00;;;15.20;72.20;;;;;;5033294;28;20044;-69
2023/08/19 08:08:54;;;;;;;2.33;1.70;;;15.10;72.20;;;;;;5032986;28;20470;-69
2023/08/19 08:11:21;;;;;;;1.73;1.13;;;15.00;72.90;;;;;;5032877;28;20034;-69
2023/08/19 08:13:49;;;;;;;1.77;1.08;;;14.90;74.10;;;;;;5033496;28;20025;-69
2023/08/19 08:16:16;;;;;;;3.03;0.90;;;14.80;74.40;;;;;;5032568;28;20041;-69
2023/08/19 08:18:44;;;;;;;2.47;1.20;;;14.80;75.50;;;;;;5032830;28;20036;-69
2023/08/19 08:21:12;;;;;;;2.67;1.10;;;14.70;76.40;;;;;;5033285;28;20391;-69
2023/08/19 08:23:39;;;;;;;1.30;0.80;;;14.60;75.60;;;;;;5033097;28;20470;-69
2023/08/19 08:26:08;;;;;;;2.92;0.90;;;14.50;76.20;;;;;;5032540;28;20399;-69
2023/08/19 08:28:36;;;;;;;1.38;0.68;;;14.40;76.90;;;;;;5032762;28;20467;-69
2023/08/19 08:31:04;;;;;;;2.35;1.15;;;14.30;77.20;;;;;;5033070;28;20112;-69
2023/08/19 08:33:31;;;;;;;1.98;1.25;;;14.20;77.10;;;;;;5031572;28;20422;-69
2023/08/19 08:36:00;;;;;;;2.47;1.10;;;14.20;77.10;;;;;;5032681;28;20044;-69
2023/08/19 08:38:28;;;;;;;1.95;1.13;;;14.10;79.00;;;;;;5042752;28;20397;-68
2023/08/19 08:40:56;;;;;;;2.58;1.45;;;14.10;78.30;;;;;;5052369;28;20029;-68
2023/08/19 08:43:25;;;;;;;3.28;1.88;;;14.00;78.40;;;;;;5052059;28;20051;-68
2023/08/19 08:45:54;;;;;;;3.75;1.52;;;13.90;78.40;;;;;;5051985;28;20486;-68
2023/08/19 08:48:22;;;;;;;2.53;1.20;;;13.90;80.20;;;;;;5041309;28;20075;-68
2023/08/19 08:50:49;;;;;;;4.53;1.80;;;14.20;78.90;;;;;;5052367;28;20040;-69
2023/08/19 08:53:17;;;;;;;4.70;2.70;;;14.30;78.70;;;;;;5052135;28;20108;-68
2023/08/19 08:55:45;;;;;;;5.28;2.53;;;14.40;77.90;;;;;;5039557;28;20083;-68
2023/08/19 08:58:13;;;;;;;6.53;2.83;;;14.20;78.90;;;;;;5032107;28;20025;-68
2023/08/19 09:00:41;;;;;;;4.25;2.53;;;14.00;79.50;;;;;;5032498;28;20057;-68
2023/08/19 09:03:10;;;;;;;7.68;2.90;;;13.80;81.20;;;;;;5031976;28;20025;-68
2023/08/19 09:05:40;;;;;;;4.72;3.00;;;13.70;81.80;;;;;;5032064;28;20033;-69
2023/08/19 09:08:14;;;;;;;5.97;2.33;;;13.40;82.40;;;;;;5031610;28;20032;-68
2023/08/19 09:10:43;;;;;;;7.35;3.10;;;13.30;83.80;;;;;;5030140;28;20533;-68
2023/08/19 09:13:13;;;;;;;5.75;3.33;;;13.50;82.60;;;;;;5047614;28;20033;-69
2023/08/19 09:15:41;;;;;;;13.02;4.95;;;13.20;83.70;;;;;;5051440;28;20044;-68
2023/08/19 09:18:08;;;;;;;13.88;6.45;;;13.30;84.00;;;;;;5051078;28;20458;-69
2023/08/19 09:20:37;;;;;;;11.90;6.75;;;13.20;84.50;;;;;;5051884;28;20102;-69
2023/08/19 09:23:08;;;;;;;9.75;5.63;;;13.30;85.30;;;;;;5040318;28;20100;-69
2023/08/19 09:25:39;;;;;;;13.82;7.00;;;13.10;84.50;;;;;;5035698;28;20120;-69
2023/08/19 09:28:07;;;;;;;19.45;9.38;;;13.00;85.80;;;;;;5033928;28;20530;-70
2023/08/19 09:30:35;;;;;;;18.63;8.98;;;13.00;86.10;;;;;;5054948;28;20454;-69
2023/08/19 09:33:03;;;;;;;14.45;7.80;;;13.00;86.90;;;;;;5055340;28;20017;-69
2023/08/19 09:35:39;;;;;;;15.70;7.57;;;12.70;86.30;;;;;;5053305;28;20135;-69
2023/08/19 09:38:18;;;;;;;13.70;7.45;;;12.60;87.40;;;;;;5055399;28;20025;-69
2023/08/19 09:40:46;;;;;;;14.30;7.88;;;12.50;88.80;;;;;;5055468;28;20049;-69
2023/08/19 09:43:14;;;;;;;17.85;7.70;;;12.40;89.20;;;;;;5055105;28;20077;-69
2023/08/19 09:45:42;;;;;;;14.80;7.20;;;12.50;88.50;;;;;;5053784;28;20116;-69
2023/08/19 09:48:09;;;;;;;12.85;6.53;;;12.40;88.60;;;;;;5054796;28;20032;-68
2023/08/19 09:50:45;;;;;;;11.32;6.47;;;12.30;89.30;;;;;;5055005;28;20079;-68
2023/08/19 09:53:16;;;;;;;9.40;5.90;;;12.30;89.60;;;;;;5055094;28;20033;-68
2023/08/19 09:55:53;;;;;;;14.48;6.38;;;12.20;90.10;;;;;;5054030;28;20044;-68
2023/08/19 09:58:20;;;;;;;13.65;5.63;;;12.10;90.20;;;;;;5054647;28;20070;-68
2023/08/19 10:00:47;;;;;;;10.43;5.68;;;12.00;90.40;;;;;;5054670;28;20157;-68
2023/08/19 10:03:17;;;;;;;12.55;5.28;;;12.00;90.60;;;;;;5045866;28;20083;-68
2023/08/19 10:05:49;;;;;;;9.20;5.18;;;11.90;90.80;;;;;;5034639;28;20115;-68
2023/08/19 10:08:23;;;;;;;8.57;4.85;;;12.00;90.60;;;;;;5034626;28;20490;-68
2023/08/19 10:10:50;;;;;;;8.18;4.25;;;11.90;90.50;;;;;;5035534;28;20426;-68
2023/08/19 10:13:19;;;;;;;9.25;4.57;;;12.00;90.70;;;;;;5057867;28;20120;-67
2023/08/19 10:15:47;;;;;;;12.80;4.97;;;12.00;90.80;;;;;;5034659;28;20033;-68
2023/08/19 10:18:27;;;;;;;9.88;4.68;;;12.20;90.50;;;;;;5034381;28;20483;-68
2023/08/19 10:20:57;;;;;;;7.97;4.35;;;12.20;90.00;;;;;;5035106;28;20029;-68
2023/08/19 10:23:26;;;;;;;9.60;5.15;;;12.10;90.00;;;;;;5034045;28;20022;-68
2023/08/19 10:25:54;;;;;;;17.98;9.43;;;11.90;91.00;;;;;;5046644;28;20029;-69
2023/08/19 10:28:27;;;;;;;27.75;14.75;;;11.90;90.50;;;;;;5054324;28;20071;-69
2023/08/19 10:31:10;;;;;;;23.35;11.95;;;11.70;91.10;;;;;;5053389;28;20079;-69
2023/08/19 10:33:44;;;;;;;20.30;8.88;;;11.70;91.20;;;;;;5054176;28;20029;-69
2023/08/19 10:36:20;;;;;;;15.30;8.48;;;12.00;90.90;;;;;;5053402;28;20040;-69
2023/08/19 10:39:00;;;;;;;14.00;6.35;;;11.90;90.90;;;;;;5034603;28;20017;-69
2023/08/19 10:41:38;;;;;;;13.20;6.00;;;11.70;90.90;;;;;;5034145;28;20064;-69
2023/08/19 10:44:12;;;;;;;13.70;6.28;;;11.70;91.20;;;;;;5033973;28;20064;-69
2023/08/19 10:46:47;;;;;;;13.80;7.43;;;11.60;91.40;;;;;;5036088;28;20021;-68
2023/08/19 10:49:17;;;;;;;14.45;8.75;;;11.80;91.50;;;;;;5053917;28;20064;-69
2023/08/19 10:51:47;;;;;;;16.35;9.20;;;11.70;91.20;;;;;;5053738;28;20021;-69
2023/08/19 10:54:15;;;;;;;15.18;8.25;;;11.70;91.60;;;;;;5044935;28;20021;-69
2023/08/19 10:56:53;;;;;;;14.68;7.72;;;11.80;91.70;;;;;;5033525;28;20091;-68
2023/08/19 10:59:21;;;;;;;15.35;7.70;;;11.60;92.10;;;;;;5033945;28;20034;-69
2023/08/19 11:01:48;;;;;;;15.27;7.53;;;11.40;92.30;;;;;;5033830;28;20026;-69
2023/08/19 11:04:16;;;;;;;12.40;6.95;;;11.40;92.30;;;;;;5034117;28;20032;-69
2023/08/19 11:06:43;;;;;;;14.25;8.23;;;11.30;92.80;;;;;;5032352;28;20395;-69
2023/08/19 11:09:11;;;;;;;13.88;8.68;;;11.20;92.90;;;;;;5033517;28;20121;-69
2023/08/19 11:11:39;;;;;;;15.05;8.02;;;11.10;93.00;;;;;;5045232;28;20040;-69
2023/08/19 11:14:06;;;;;;;12.70;7.60;;;11.20;93.20;;;;;;5053395;28;20025;-69
2023/08/19 11:16:34;;;;;;;10.75;6.03;;;11.20;93.40;;;;;;5053689;28;20029;-69
2023/08/19 11:19:02;;;;;;;11.75;6.10;;;11.20;93.40;;;;;;5042401;28;20055;-69
2023/08/19 11:21:30;;;;;;;11.65;5.45;;;11.30;92.90;;;;;;5032841;28;20021;-69
2023/08/19 11:23:58;;;;;;;11.10;5.57;;;11.20;93.00;;;;;;5030802;28;20423;-69
2023/08/19 11:26:26;;;;;;;9.57;5.05;;;11.40;93.00;;;;;;5031778;28;20041;-69
2023/08/19 11:28:53;;;;;;;8.88;4.80;;;11.30;92.90;;;;;;5046066;28;20033;-69
2023/08/19 11:31:21;;;;;;;9.80;4.88;;;11.10;92.90;;;;;;5050885;28;20083;-70
2023/08/19 11:33:49;;;;;;;9.57;4.70;;;11.10;93.30;;;;;;5052133;28;20480;-68
2023/08/19 11:36:17;;;;;;;9.32;4.40;;;11.00;93.30;;;;;;5053360;28;20421;-68
2023/08/19 11:38:46;;;;;;;11.18;4.82;;;11.00;93.50;;;;;;5052988;28;20490;-69
2023/08/19 11:41:13;;;;;;;9.18;4.47;;;11.00;93.80;;;;;;5053761;28;20021;-69
2023/08/19 11:43:44;;;;;;;9.65;5.18;;;10.90;93.80;;;;;;5053170;28;20025;-68
2023/08/19 11:46:12;;;;;;;17.08;8.32;;;10.90;94.00;;;;;;5036338;28;20022;-70
2023/08/19 11:48:40;;;;;;;15.05;7.13;;;11.20;93.80;;;;;;5033255;28;20025;-69
2023/08/19 11:51:11;;;;;;;14.77;8.02;;;11.10;93.50;;;;;;5036151;28;20108;-69
2023/08/19 11:53:40;;;;;;;13.85;7.07;;;10.90;94.20;;;;;;5053210;28;20036;-69
2023/08/19 11:56:07;;;;;;;12.77;6.80;;;10.70;94.00;;;;;;5037251;28;20537;-69
2023/08/19 11:58:53;;;;;;;14.48;7.50;;;10.80;94.70;;;;;;5033189;28;20032;-69
2023/08/19 12:01:22;;;;;;;12.82;6.40;;;10.70;94.50;;;;;;5033674;28;20029;-68
2023/08/19 12:03:52;;;;;;;12.90;5.75;;;10.60;94.60;;;;;;5052918;28;20040;-68
2023/08/19 12:06:20;;;;;;;11.82;6.40;;;10.50;94.80;;;;;;5052531;28;20603;-68
2023/08/19 12:08:48;;;;;;;17.02;7.85;;;10.40;95.20;;;;;;5052664;28;20079;-68
2023/08/19 12:11:27;;;;;;;11.88;6.95;;;10.30;95.20;;;;;;5052125;28;20111;-68
2023/08/19 12:13:56;;;;;;;17.23;8.80;;;10.30;95.60;;;;;;5032323;28;20029;-68
2023/08/19 12:16:23;;;;;;;19.05;9.45;;;10.30;95.20;;;;;;5032605;28;20049;-68
2023/08/19 12:18:51;;;;;;;23.75;10.55;;;10.40;95.60;;;;;;5033002;28;20026;-68
2023/08/19 12:21:18;;;;;;;23.27;10.60;;;10.30;95.60;;;;;;5032648;28;20026;-69
2023/08/19 12:23:46;;;;;;;15.18;8.02;;;10.40;95.70;;;;;;5032724;28;20112;-69
2023/08/19 12:26:13;;;;;;;14.95;7.85;;;10.30;95.50;;;;;;5032121;28;20040;-69
2023/08/19 12:28:40;;;;;;;18.63;7.97;;;10.30;96.00;;;;;;5031684;28;20555;-69
2023/08/19 12:31:08;;;;;;;14.48;6.93;;;10.20;95.70;;;;;;5032393;28;20112;-69
2023/08/19 12:33:36;;;;;;;14.43;7.60;;;10.20;96.00;;;;;;5032308;28;20017;-69
2023/08/19 12:36:04;;;;;;;12.10;6.70;;;10.10;95.90;;;;;;5039116;28;20040;-69
2023/08/19 12:38:32;;;;;;;12.85;6.82;;;10.10;96.10;;;;;;5052657;28;20025;-69
2023/08/19 12:41:01;;;;;;;11.50;5.68;;;10.20;96.00;;;;;;5051854;28;20025;-69
2023/08/19 12:43:28;;;;;;;13.10;6.07;;;10.10;95.90;;;;;;5052301;28;20025;-70
2023/08/19 12:45:56;;;;;;;9.85;5.38;;;10.00;96.00;;;;;;5042911;28;20409;-69
2023/08/19 12:48:23;;;;;;;12.40;4.70;;;10.00;96.40;;;;;;5052267;28;20378;-69
2023/08/19 12:50:51;;;;;;;8.43;4.75;;;10.00;96.30;;;;;;5052085;28;20024;-69